Miura — D5NC6 — position and weather

sailwx.info

Track history (hours):
 
Tides and Currents Weather Stations Pressure Air Temp Water Temp Dewpoint Dewpoint Depression Visibility Wind Speed Wind Dir Waves Ship Positions

Miura

Last reported at 2018-Feb-05 13:09 UTC. Time now 2018-Feb-21 07:22 UTC.
Position N 31°53' E 031°48'.
Warning: this ship's position is 15 days out of date.

Length 149 m; draft 9.4 m.

Type: Tanker. MMSI: 636017873.

Date/timePositionNaut miles runAvg speedWind from/ knotsBaromVisibWave heightAir tempDewpointWater temp
2018-Feb-05 13:09N 31°53' E 031°48'1011.5
2018-Feb-05 12:16N 32°00' E 031°40'1811.5
2018-Feb-05 10:42N 32°14' E 031°26'612.0
2018-Feb-05 10:13N 32°18' E 031°22'3811.5
2018-Feb-05 06:53N 32°46' E 030°51'411.8
2018-Feb-05 06:30N 32°49' E 030°47'1511.9
2018-Feb-05 05:15N 33°00' E 030°35'412.2
2018-Feb-05 04:53N 33°04' E 030°32'512.2
2018-Feb-05 04:30N 33°08' E 030°29'612.1
2018-Feb-05 04:00N 33°12' E 030°24'712.1
2018-Feb-05 03:27N 33°17' E 030°18'512.5
2018-Feb-05 03:00N 33°21' E 030°14'712.6
2018-Feb-05 02:29N 33°26' E 030°09'612.8
2018-Feb-05 02:00N 33°30' E 030°04'6512.3
2018-Feb-04 20:44N 34°19' E 029°11'1011.2
2018-Feb-04 19:53N 34°26' E 029°04'23510.8
2018-Feb-03 22:08N 37°24' E 025°55'110.2
2018-Feb-03 22:00N 37°26' E 025°55'510.1
2018-Feb-03 21:30N 37°30' E 025°52'237 8.8
2018-Feb-02 18:37N 40°52' E 028°32'111.6
2018-Feb-02 18:30N 40°53' E 028°34'14 1.3
2018-Feb-02 07:48N 40°56' E 028°52'310.2
2018-Feb-02 07:30N 40°57' E 028°56'510.5
2018-Feb-02 07:00N 41°01' E 028°60'319 8.2
2018-Jan-31 16:17N 46°07' E 031°05'312.0
2018-Jan-31 16:00N 46°09' E 031°01'612.1
2018-Jan-31 15:31N 46°14' E 030°56'611.3
2018-Jan-31 15:01N 46°20' E 030°55'612.3
2018-Jan-31 14:31N 46°26' E 030°55'13 8.4
2018-Jan-31 13:00N 46°35' E 031°07'610.9
2018-Jan-31 12:30N 46°35' E 031°15'510.9
2018-Jan-31 12:00N 46°34' E 031°23'12 9.8
2018-Jan-31 10:45N 46°36' E 031°41'310.8
2018-Jan-31 10:27N 46°36' E 031°46'510.3
2018-Jan-31 10:00N 46°37' E 031°52'5 9.4
2018-Jan-31 09:30N 46°41' E 031°56'5 9.1
2018-Jan-31 09:01N 46°45' E 031°54'5 9.2
2018-Jan-31 08:30N 46°50' E 031°55'510.4
2018-Jan-31 08:01N 46°54' E 032°00'3 5.9
2018-Jan-31 07:30N 46°56' E 032°00'0 0.8
2018-Jan-31 06:59N 46°57' E 031°60'0 0.0
2018-Jan-31 06:29N 46°57' E 031°60'0 0.0
2018-Jan-31 05:59N 46°57' E 031°60'0 0.0
2018-Jan-31 05:29N 46°57' E 031°60'0 0.0
2018-Jan-31 04:59N 46°57' E 031°60'0 0.0
2018-Jan-31 04:29N 46°57' E 031°60'0 0.0
2018-Jan-31 03:59N 46°57' E 031°60'0 0.0
2018-Jan-31 03:29N 46°57' E 031°60'0 0.0
2018-Jan-31 02:59N 46°57' E 031°60'0 0.0
2018-Jan-31 02:29N 46°57' E 031°60'0 0.0
2018-Jan-31 01:59N 46°57' E 031°60'0 0.0
2018-Jan-31 01:29N 46°57' E 031°60'0 0.0
2018-Jan-31 00:59N 46°57' E 031°60'0 0.0
2018-Jan-30 23:59N 46°57' E 031°60'0 0.0
2018-Jan-30 23:29N 46°57' E 031°60'0 0.0
2018-Jan-30 22:59N 46°57' E 031°60'0 0.0
2018-Jan-30 22:29N 46°57' E 031°60'0 0.0
2018-Jan-30 21:29N 46°57' E 031°60'0 0.0
2018-Jan-30 20:59N 46°57' E 031°60'0 0.0
2018-Jan-30 20:29N 46°57' E 031°60'0 0.0
2018-Jan-30 19:59N 46°57' E 031°60'0 0.0
2018-Jan-30 19:29N 46°57' E 031°60'0 0.0
2018-Jan-30 18:59N 46°57' E 031°60'0 0.0
2018-Jan-30 18:29N 46°57' E 031°60'0 0.0
2018-Jan-30 17:59N 46°57' E 031°60'0 0.0
2018-Jan-30 17:29N 46°57' E 031°60'0 0.0
2018-Jan-30 16:59N 46°57' E 031°60'0 0.0
2018-Jan-30 16:29N 46°57' E 031°60'0 0.0
2018-Jan-30 15:59N 46°57' E 031°60'0 0.0
2018-Jan-30 15:29N 46°57' E 031°60'0 0.0
2018-Jan-30 14:59N 46°57' E 031°60'0 0.0
2018-Jan-30 14:29N 46°57' E 031°60'0 0.0
2018-Jan-30 13:29N 46°57' E 031°60'0 0.0
2018-Jan-30 12:59N 46°57' E 031°60'0 0.0
2018-Jan-30 12:29N 46°57' E 031°60'0 0.0
2018-Jan-30 11:59N 46°57' E 031°60'0 0.0
2018-Jan-30 11:29N 46°57' E 031°60'0 0.0
2018-Jan-30 10:29N 46°57' E 031°60'0 0.0
2018-Jan-30 09:29N 46°57' E 031°60'0 0.0
2018-Jan-30 08:59N 46°57' E 031°60'0 0.0
2018-Jan-30 08:29N 46°57' E 031°60'0 0.0
2018-Jan-30 07:59N 46°57' E 031°60'0 0.0
2018-Jan-30 07:29N 46°57' E 031°60'0 0.0
2018-Jan-30 06:59N 46°57' E 031°60'0 0.0
2018-Jan-30 06:29N 46°57' E 031°60'0 0.0
2018-Jan-30 05:59N 46°57' E 031°60'0 0.0
2018-Jan-30 05:29N 46°57' E 031°60'0 0.0
2018-Jan-30 04:59N 46°57' E 031°60'0 0.0
2018-Jan-30 04:29N 46°57' E 031°60'0 0.0
2018-Jan-30 03:59N 46°57' E 031°60'0 0.0
2018-Jan-30 03:29N 46°57' E 031°60'0 0.0
2018-Jan-30 02:59N 46°57' E 031°60'0 0.0
2018-Jan-30 02:30N 46°57' E 031°60'1 1.4
2018-Jan-30 02:00N 46°57' E 032°01'0 0.6
2018-Jan-30 01:28N 46°56' E 032°01'0 0.0
2018-Jan-30 00:58N 46°56' E 032°01'0 0.0
2018-Jan-30 00:28N 46°56' E 032°01'0 0.0
2018-Jan-29 23:58N 46°56' E 032°01'0 0.0
2018-Jan-29 23:28N 46°56' E 032°01'0 0.0
2018-Jan-29 22:58N 46°56' E 032°01'0 0.0
2018-Jan-29 22:28N 46°56' E 032°01'0 0.0
2018-Jan-29 21:58N 46°56' E 032°01'0 0.0
2018-Jan-29 21:28N 46°56' E 032°01'0 0.0
2018-Jan-29 20:55N 46°56' E 032°01'0 0.0
2018-Jan-29 20:28N 46°56' E 032°01'0 0.0
2018-Jan-29 19:58N 46°56' E 032°01'0 0.0
2018-Jan-29 19:28N 46°56' E 032°01'0 0.0
2018-Jan-29 18:58N 46°56' E 032°01'0 0.0
2018-Jan-29 18:28N 46°56' E 032°01'0 0.0
2018-Jan-29 17:58N 46°56' E 032°01'0 0.0
2018-Jan-29 17:28N 46°56' E 032°01'0 0.0
2018-Jan-29 16:58N 46°56' E 032°01'0 0.0
2018-Jan-29 16:28N 46°56' E 032°01'0 0.0
2018-Jan-29 15:58N 46°56' E 032°01'0 0.0
2018-Jan-29 15:28N 46°56' E 032°01'0 0.0
2018-Jan-29 14:58N 46°56' E 032°01'0 0.0
2018-Jan-29 14:28N 46°56' E 032°01'0 0.0
2018-Jan-29 13:58N 46°56' E 032°01'0 0.0
2018-Jan-29 13:28N 46°56' E 032°01'0 0.0
2018-Jan-29 12:58N 46°56' E 032°01'0 0.0
2018-Jan-29 12:28N 46°56' E 032°01'0 0.0
2018-Jan-29 11:55N 46°56' E 032°01'0 0.0
2018-Jan-29 11:28N 46°56' E 032°01'0 0.0
2018-Jan-29 10:58N 46°56' E 032°01'0 0.0
2018-Jan-29 10:28N 46°56' E 032°01'0 0.0
2018-Jan-29 09:58N 46°56' E 032°01'0 0.0
2018-Jan-29 09:28N 46°56' E 032°01'0 0.0
2018-Jan-29 08:58N 46°56' E 032°01'0 0.0
2018-Jan-29 08:28N 46°56' E 032°01'0 0.0
2018-Jan-29 07:58N 46°56' E 032°01'0 0.0
2018-Jan-29 07:28N 46°56' E 032°01'0 0.0
2018-Jan-29 06:58N 46°56' E 032°01'0 0.0
2018-Jan-29 06:28N 46°56' E 032°01'0 0.0
2018-Jan-29 05:58N 46°56' E 032°01'0 0.0
2018-Jan-29 05:28N 46°56' E 032°01'0 0.0
2018-Jan-29 04:58N 46°56' E 032°01'0 0.0
2018-Jan-29 04:28N 46°56' E 032°01'0 0.0
2018-Jan-29 03:58N 46°56' E 032°01'0 0.0
2018-Jan-29 03:28N 46°56' E 032°01'0 0.0
2018-Jan-29 02:58N 46°56' E 032°01'0 0.0
2018-Jan-29 02:25N 46°56' E 032°01'0 0.0
2018-Jan-29 01:58N 46°56' E 032°01'0 0.0
2018-Jan-29 01:28N 46°56' E 032°01'0 0.0
2018-Jan-29 00:58N 46°56' E 032°01'0 0.0
2018-Jan-29 00:28N 46°56' E 032°01'0 0.0
2018-Jan-28 23:58N 46°56' E 032°01'0 0.5
2018-Jan-28 23:30N 46°56' E 032°01'4 8.1
2018-Jan-28 23:00N 46°52' E 031°59'612.6
2018-Jan-28 22:30N 46°48' E 031°53'611.5
2018-Jan-28 22:00N 46°42' E 031°56'611.4
2018-Jan-28 21:30N 46°37' E 031°52'612.2
2018-Jan-28 21:00N 46°36' E 031°44'612.3
2018-Jan-28 20:30N 46°35' E 031°35'510.6
2018-Jan-28 20:00N 46°35' E 031°27'712.6
2018-Jan-28 19:29N 46°35' E 031°18'612.8
2018-Jan-28 19:00N 46°35' E 031°09'611.7
2018-Jan-28 18:31N 46°34' E 031°00'4 7.0
2018-Jan-28 18:00N 46°31' E 030°57'612.9
2018-Jan-28 17:30N 46°25' E 030°58'612.5
2018-Jan-28 17:00N 46°19' E 031°03'2 2.8
2018-Jan-28 16:09N 46°20' E 031°06'0 0.0
2018-Jan-28 16:00N 46°20' E 031°06'0 0.0
2018-Jan-28 15:24N 46°20' E 031°06'0 0.1
2018-Jan-28 15:00N 46°20' E 031°06'0 0.0
2018-Jan-28 14:24N 46°20' E 031°06'0 0.0
2018-Jan-28 13:57N 46°20' E 031°06'0 0.0
2018-Jan-28 13:24N 46°20' E 031°06'0 0.0
2018-Jan-28 13:00N 46°20' E 031°06'0 0.0
2018-Jan-28 12:21N 46°20' E 031°06'0 0.1
2018-Jan-28 12:00N 46°20' E 031°06'0 0.0
2018-Jan-28 11:30N 46°20' E 031°06'0 0.1
2018-Jan-28 10:57N 46°20' E 031°06'0 0.1
2018-Jan-28 10:27N 46°20' E 031°06'0 0.1
2018-Jan-28 10:00N 46°20' E 031°06'0 0.0
2018-Jan-28 09:30N 46°20' E 031°06'0 0.0
2018-Jan-28 08:57N 46°20' E 031°06'0 0.1
2018-Jan-28 08:30N 46°20' E 031°06'0 0.0
2018-Jan-28 07:57N 46°20' E 031°06'0 0.0
2018-Jan-28 07:27N 46°20' E 031°06'0 0.0
2018-Jan-28 07:00N 46°20' E 031°06'1 1.9
2018-Jan-28 06:31N 46°20' E 031°04'510.4
2018-Jan-28 06:00N 46°18' E 030°57'5 9.1
2018-Jan-28 05:30N 46°15' E 031°01'5 9.2
2018-Jan-28 05:00N 46°11' E 031°05'5 9.2
2018-Jan-28 04:27N 46°07' E 031°10'4 8.5
2018-Jan-28 03:58N 46°03' E 031°11'911.6
2018-Jan-28 03:09N 45°54' E 031°11'9211.8
2018-Jan-27 19:22N 44°24' E 030°43'10212.1
2018-Jan-27 11:00N 42°48' E 029°56'1312.5
2018-Jan-27 09:58N 42°36' E 029°50'1012.4
2018-Jan-27 09:09N 42°26' E 029°45'9411.6
2018-Jan-27 01:05N 40°59' E 028°60'3 7.3
2018-Jan-27 00:40N 40°56' E 028°59'3 9.2
2018-Jan-27 00:17N 40°54' E 028°55'312.1
2018-Jan-27 00:00N 40°51' E 028°52'11 1.3
2018-Jan-26 15:49N 40°41' E 028°53'1 1.7
2018-Jan-26 15:25N 40°41' E 028°53'  
Track history (hours):
 
Tides and Currents Weather Stations Pressure Air Temp Water Temp Dewpoint Dewpoint Depression Visibility Wind Speed Wind Dir Waves Ship Positions

Miura

Last reported at 2018-Feb-05 13:09 UTC. Time now 2018-Feb-21 07:22 UTC.
Position N 31°53' E 031°48'.
Warning: this ship's position is 15 days out of date.

Length 149 m; draft 9.4 m.

Type: Tanker. MMSI: 636017873.

Date/timePositionNaut miles runAvg speedWind from/ knotsBaromVisibWave heightAir tempDewpointWater temp
2018-Feb-05 13:09N 31°53' E 031°48'1011.5
2018-Feb-05 12:16N 32°00' E 031°40'1811.5
2018-Feb-05 10:42N 32°14' E 031°26'612.0
2018-Feb-05 10:13N 32°18' E 031°22'3811.5
2018-Feb-05 06:53N 32°46' E 030°51'411.8
2018-Feb-05 06:30N 32°49' E 030°47'1511.9
2018-Feb-05 05:15N 33°00' E 030°35'412.2
2018-Feb-05 04:53N 33°04' E 030°32'512.2
2018-Feb-05 04:30N 33°08' E 030°29'612.1
2018-Feb-05 04:00N 33°12' E 030°24'712.1
2018-Feb-05 03:27N 33°17' E 030°18'512.5
2018-Feb-05 03:00N 33°21' E 030°14'712.6
2018-Feb-05 02:29N 33°26' E 030°09'612.8
2018-Feb-05 02:00N 33°30' E 030°04'6512.3
2018-Feb-04 20:44N 34°19' E 029°11'1011.2
2018-Feb-04 19:53N 34°26' E 029°04'23510.8
2018-Feb-03 22:08N 37°24' E 025°55'110.2
2018-Feb-03 22:00N 37°26' E 025°55'510.1
2018-Feb-03 21:30N 37°30' E 025°52'237 8.8
2018-Feb-02 18:37N 40°52' E 028°32'111.6
2018-Feb-02 18:30N 40°53' E 028°34'14 1.3
2018-Feb-02 07:48N 40°56' E 028°52'310.2
2018-Feb-02 07:30N 40°57' E 028°56'510.5
2018-Feb-02 07:00N 41°01' E 028°60'319 8.2
2018-Jan-31 16:17N 46°07' E 031°05'312.0
2018-Jan-31 16:00N 46°09' E 031°01'612.1
2018-Jan-31 15:31N 46°14' E 030°56'611.3
2018-Jan-31 15:01N 46°20' E 030°55'612.3
2018-Jan-31 14:31N 46°26' E 030°55'13 8.4
2018-Jan-31 13:00N 46°35' E 031°07'610.9
2018-Jan-31 12:30N 46°35' E 031°15'510.9
2018-Jan-31 12:00N 46°34' E 031°23'12 9.8
2018-Jan-31 10:45N 46°36' E 031°41'310.8
2018-Jan-31 10:27N 46°36' E 031°46'510.3
2018-Jan-31 10:00N 46°37' E 031°52'5 9.4
2018-Jan-31 09:30N 46°41' E 031°56'5 9.1
2018-Jan-31 09:01N 46°45' E 031°54'5 9.2
2018-Jan-31 08:30N 46°50' E 031°55'510.4
2018-Jan-31 08:01N 46°54' E 032°00'3 5.9
2018-Jan-31 07:30N 46°56' E 032°00'0 0.8
2018-Jan-31 06:59N 46°57' E 031°60'0 0.0
2018-Jan-31 06:29N 46°57' E 031°60'0 0.0
2018-Jan-31 05:59N 46°57' E 031°60'0 0.0
2018-Jan-31 05:29N 46°57' E 031°60'0 0.0
2018-Jan-31 04:59N 46°57' E 031°60'0 0.0
2018-Jan-31 04:29N 46°57' E 031°60'0 0.0
2018-Jan-31 03:59N 46°57' E 031°60'0 0.0
2018-Jan-31 03:29N 46°57' E 031°60'0 0.0
2018-Jan-31 02:59N 46°57' E 031°60'0 0.0
2018-Jan-31 02:29N 46°57' E 031°60'0 0.0
2018-Jan-31 01:59N 46°57' E 031°60'0 0.0
2018-Jan-31 01:29N 46°57' E 031°60'0 0.0
2018-Jan-31 00:59N 46°57' E 031°60'0 0.0
2018-Jan-30 23:59N 46°57' E 031°60'0 0.0
2018-Jan-30 23:29N 46°57' E 031°60'0 0.0
2018-Jan-30 22:59N 46°57' E 031°60'0 0.0
2018-Jan-30 22:29N 46°57' E 031°60'0 0.0
2018-Jan-30 21:29N 46°57' E 031°60'0 0.0
2018-Jan-30 20:59N 46°57' E 031°60'0 0.0
2018-Jan-30 20:29N 46°57' E 031°60'0 0.0
2018-Jan-30 19:59N 46°57' E 031°60'0 0.0
2018-Jan-30 19:29N 46°57' E 031°60'0 0.0
2018-Jan-30 18:59N 46°57' E 031°60'0 0.0
2018-Jan-30 18:29N 46°57' E 031°60'0 0.0
2018-Jan-30 17:59N 46°57' E 031°60'0 0.0
2018-Jan-30 17:29N 46°57' E 031°60'0 0.0
2018-Jan-30 16:59N 46°57' E 031°60'0 0.0
2018-Jan-30 16:29N 46°57' E 031°60'0 0.0
2018-Jan-30 15:59N 46°57' E 031°60'0 0.0
2018-Jan-30 15:29N 46°57' E 031°60'0 0.0
2018-Jan-30 14:59N 46°57' E 031°60'0 0.0
2018-Jan-30 14:29N 46°57' E 031°60'0 0.0
2018-Jan-30 13:29N 46°57' E 031°60'0 0.0
2018-Jan-30 12:59N 46°57' E 031°60'0 0.0
2018-Jan-30 12:29N 46°57' E 031°60'0 0.0
2018-Jan-30 11:59N 46°57' E 031°60'0 0.0
2018-Jan-30 11:29N 46°57' E 031°60'0 0.0
2018-Jan-30 10:29N 46°57' E 031°60'0 0.0
2018-Jan-30 09:29N 46°57' E 031°60'0 0.0
2018-Jan-30 08:59N 46°57' E 031°60'0 0.0
2018-Jan-30 08:29N 46°57' E 031°60'0 0.0
2018-Jan-30 07:59N 46°57' E 031°60'0 0.0
2018-Jan-30 07:29N 46°57' E 031°60'0 0.0
2018-Jan-30 06:59N 46°57' E 031°60'0 0.0
2018-Jan-30 06:29N 46°57' E 031°60'0 0.0
2018-Jan-30 05:59N 46°57' E 031°60'0 0.0
2018-Jan-30 05:29N 46°57' E 031°60'0 0.0
2018-Jan-30 04:59N 46°57' E 031°60'0 0.0
2018-Jan-30 04:29N 46°57' E 031°60'0 0.0
2018-Jan-30 03:59N 46°57' E 031°60'0 0.0
2018-Jan-30 03:29N 46°57' E 031°60'0 0.0
2018-Jan-30 02:59N 46°57' E 031°60'0 0.0
2018-Jan-30 02:30N 46°57' E 031°60'1 1.4
2018-Jan-30 02:00N 46°57' E 032°01'0 0.6
2018-Jan-30 01:28N 46°56' E 032°01'0 0.0
2018-Jan-30 00:58N 46°56' E 032°01'0 0.0
2018-Jan-30 00:28N 46°56' E 032°01'0 0.0
2018-Jan-29 23:58N 46°56' E 032°01'0 0.0
2018-Jan-29 23:28N 46°56' E 032°01'0 0.0
2018-Jan-29 22:58N 46°56' E 032°01'0 0.0
2018-Jan-29 22:28N 46°56' E 032°01'0 0.0
2018-Jan-29 21:58N 46°56' E 032°01'0 0.0
2018-Jan-29 21:28N 46°56' E 032°01'0 0.0
2018-Jan-29 20:55N 46°56' E 032°01'0 0.0
2018-Jan-29 20:28N 46°56' E 032°01'0 0.0
2018-Jan-29 19:58N 46°56' E 032°01'0 0.0
2018-Jan-29 19:28N 46°56' E 032°01'0 0.0
2018-Jan-29 18:58N 46°56' E 032°01'0 0.0
2018-Jan-29 18:28N 46°56' E 032°01'0 0.0
2018-Jan-29 17:58N 46°56' E 032°01'0 0.0
2018-Jan-29 17:28N 46°56' E 032°01'0 0.0
2018-Jan-29 16:58N 46°56' E 032°01'0 0.0
2018-Jan-29 16:28N 46°56' E 032°01'0 0.0
2018-Jan-29 15:58N 46°56' E 032°01'0 0.0
2018-Jan-29 15:28N 46°56' E 032°01'0 0.0
2018-Jan-29 14:58N 46°56' E 032°01'0 0.0
2018-Jan-29 14:28N 46°56' E 032°01'0 0.0
2018-Jan-29 13:58N 46°56' E 032°01'0 0.0
2018-Jan-29 13:28N 46°56' E 032°01'0 0.0
2018-Jan-29 12:58N 46°56' E 032°01'0 0.0
2018-Jan-29 12:28N 46°56' E 032°01'0 0.0
2018-Jan-29 11:55N 46°56' E 032°01'0 0.0
2018-Jan-29 11:28N 46°56' E 032°01'0 0.0
2018-Jan-29 10:58N 46°56' E 032°01'0 0.0
2018-Jan-29 10:28N 46°56' E 032°01'0 0.0
2018-Jan-29 09:58N 46°56' E 032°01'0 0.0
2018-Jan-29 09:28N 46°56' E 032°01'0 0.0
2018-Jan-29 08:58N 46°56' E 032°01'0 0.0
2018-Jan-29 08:28N 46°56' E 032°01'0 0.0
2018-Jan-29 07:58N 46°56' E 032°01'0 0.0
2018-Jan-29 07:28N 46°56' E 032°01'0 0.0
2018-Jan-29 06:58N 46°56' E 032°01'0 0.0
2018-Jan-29 06:28N 46°56' E 032°01'0 0.0
2018-Jan-29 05:58N 46°56' E 032°01'0 0.0
2018-Jan-29 05:28N 46°56' E 032°01'0 0.0
2018-Jan-29 04:58N 46°56' E 032°01'0 0.0
2018-Jan-29 04:28N 46°56' E 032°01'0 0.0
2018-Jan-29 03:58N 46°56' E 032°01'0 0.0
2018-Jan-29 03:28N 46°56' E 032°01'0 0.0
2018-Jan-29 02:58N 46°56' E 032°01'0 0.0
2018-Jan-29 02:25N 46°56' E 032°01'0 0.0
2018-Jan-29 01:58N 46°56' E 032°01'0 0.0
2018-Jan-29 01:28N 46°56' E 032°01'0 0.0
2018-Jan-29 00:58N 46°56' E 032°01'0 0.0
2018-Jan-29 00:28N 46°56' E 032°01'0 0.0
2018-Jan-28 23:58N 46°56' E 032°01'0 0.5
2018-Jan-28 23:30N 46°56' E 032°01'4 8.1
2018-Jan-28 23:00N 46°52' E 031°59'612.6
2018-Jan-28 22:30N 46°48' E 031°53'611.5
2018-Jan-28 22:00N 46°42' E 031°56'611.4
2018-Jan-28 21:30N 46°37' E 031°52'612.2
2018-Jan-28 21:00N 46°36' E 031°44'612.3
2018-Jan-28 20:30N 46°35' E 031°35'510.6
2018-Jan-28 20:00N 46°35' E 031°27'712.6
2018-Jan-28 19:29N 46°35' E 031°18'612.8
2018-Jan-28 19:00N 46°35' E 031°09'611.7
2018-Jan-28 18:31N 46°34' E 031°00'4 7.0
2018-Jan-28 18:00N 46°31' E 030°57'612.9
2018-Jan-28 17:30N 46°25' E 030°58'612.5
2018-Jan-28 17:00N 46°19' E 031°03'2 2.8
2018-Jan-28 16:09N 46°20' E 031°06'0 0.0
2018-Jan-28 16:00N 46°20' E 031°06'0 0.0
2018-Jan-28 15:24N 46°20' E 031°06'0 0.1
2018-Jan-28 15:00N 46°20' E 031°06'0 0.0
2018-Jan-28 14:24N 46°20' E 031°06'0 0.0
2018-Jan-28 13:57N 46°20' E 031°06'0 0.0
2018-Jan-28 13:24N 46°20' E 031°06'0 0.0
2018-Jan-28 13:00N 46°20' E 031°06'0 0.0
2018-Jan-28 12:21N 46°20' E 031°06'0 0.1
2018-Jan-28 12:00N 46°20' E 031°06'0 0.0
2018-Jan-28 11:30N 46°20' E 031°06'0 0.1
2018-Jan-28 10:57N 46°20' E 031°06'0 0.1
2018-Jan-28 10:27N 46°20' E 031°06'0 0.1
2018-Jan-28 10:00N 46°20' E 031°06'0 0.0
2018-Jan-28 09:30N 46°20' E 031°06'0 0.0
2018-Jan-28 08:57N 46°20' E 031°06'0 0.1
2018-Jan-28 08:30N 46°20' E 031°06'0 0.0
2018-Jan-28 07:57N 46°20' E 031°06'0 0.0
2018-Jan-28 07:27N 46°20' E 031°06'0 0.0
2018-Jan-28 07:00N 46°20' E 031°06'1 1.9
2018-Jan-28 06:31N 46°20' E 031°04'510.4
2018-Jan-28 06:00N 46°18' E 030°57'5 9.1
2018-Jan-28 05:30N 46°15' E 031°01'5 9.2
2018-Jan-28 05:00N 46°11' E 031°05'5 9.2
2018-Jan-28 04:27N 46°07' E 031°10'4 8.5
2018-Jan-28 03:58N 46°03' E 031°11'911.6
2018-Jan-28 03:09N 45°54' E 031°11'9211.8
2018-Jan-27 19:22N 44°24' E 030°43'10212.1
2018-Jan-27 11:00N 42°48' E 029°56'1312.5
2018-Jan-27 09:58N 42°36' E 029°50'1012.4
2018-Jan-27 09:09N 42°26' E 029°45'9411.6
2018-Jan-27 01:05N 40°59' E 028°60'3 7.3
2018-Jan-27 00:40N 40°56' E 028°59'3 9.2
2018-Jan-27 00:17N 40°54' E 028°55'312.1
2018-Jan-27 00:00N 40°51' E 028°52'11 1.3
2018-Jan-26 15:49N 40°41' E 028°53'1 1.7
2018-Jan-26 15:25N 40°41' E 028°53'  

Dump ship's entire track history